Time;durP1;ratioP1;P1;durP2;ratioP2;P2;SDS_P1;SDS_P2;PMS_P1;PMS_P2;Temp;Humidity;BMP_temperature;BMP_pressure;BME280_temperature;BME280_humidity;BME280_pressure;Samples;Min_cycle;Max_cycle;Signal;HPM_P1;HPM_P2
2022/12/16 00:00:43;;;;;;;202.75;89.10;;;;;;;-4.29;75.30;99815.89;2028394;86;28304;-66
2022/12/16 00:03:48;;;;;;;214.42;94.37;;;;;;;-4.27;75.25;99824.61;2028083;86;27640;-66
2022/12/16 00:06:50;;;;;;;214.93;92.40;;;;;;;-4.23;75.29;99819.40;2028258;87;31042;-66
2022/12/16 00:09:52;;;;;;;206.00;88.70;;;;;;;-4.22;75.29;99819.39;2028479;86;33400;-64
2022/12/16 00:12:53;;;;;;;201.22;85.67;;;;;;;-4.20;75.29;99813.73;2028468;87;29371;-65
2022/12/16 00:15:55;;;;;;;190.43;80.35;;;;;;;-4.20;75.41;99815.05;2028393;86;27659;-65
2022/12/16 00:18:56;;;;;;;204.32;88.22;;;;;;;-4.18;75.41;99812.00;2028034;87;28994;-65
2022/12/16 00:21:58;;;;;;;184.75;82.22;;;;;;;-4.18;75.43;99828.11;2028247;87;31036;-66
2022/12/16 00:24:59;;;;;;;196.85;83.12;;;;;;;-4.16;75.45;99818.53;2028772;87;33982;-64
2022/12/16 00:28:01;;;;;;;181.63;79.62;;;;;;;-4.14;75.46;99818.10;2028283;87;28837;-65
2022/12/16 00:31:03;;;;;;;180.07;81.57;;;;;;;-4.10;75.43;99817.25;2028330;87;27702;-65
2022/12/16 00:34:04;;;;;;;179.97;78.90;;;;;;;-4.05;75.55;99808.09;2028360;87;28660;-65
2022/12/16 00:37:06;;;;;;;163.85;73.28;;;;;;;-4.04;75.49;99795.00;2028454;87;31404;-65
2022/12/16 00:40:09;;;;;;;164.28;71.87;;;;;;;-4.02;75.49;99801.56;2028258;87;33095;-65
2022/12/16 00:43:11;;;;;;;180.10;81.45;;;;;;;-4.02;75.47;99805.48;2028343;87;29503;-65
2022/12/16 00:46:13;;;;;;;172.22;75.47;;;;;;;-4.03;75.50;99802.44;2029359;86;27716;-64
2022/12/16 00:49:14;;;;;;;153.27;70.00;;;;;;;-4.03;75.46;99800.67;2096395;84;29921;-65
2022/12/16 00:52:16;;;;;;;140.43;63.65;;;;;;;-4.04;75.53;99795.45;2075856;85;31019;-65
2022/12/16 00:55:19;;;;;;;145.75;67.12;;;;;;;-4.05;75.76;99789.78;2096553;84;33817;-64
2022/12/16 00:58:21;;;;;;;178.50;76.60;;;;;;;-4.08;75.75;99785.84;2075740;85;29471;-64
2022/12/16 01:01:22;;;;;;;170.87;75.92;;;;;;;-4.09;75.71;99782.38;2096533;84;28266;-65
2022/12/16 01:04:25;;;;;;;177.20;76.87;;;;;;;-4.08;75.77;99777.58;2075664;85;28713;-64
2022/12/16 01:07:27;;;;;;;165.12;74.65;;;;;;;-4.06;75.84;99771.03;2096490;84;32222;-65
2022/12/16 01:10:29;;;;;;;173.80;75.85;;;;;;;-4.03;75.85;99774.52;2075925;85;33743;-64
2022/12/16 01:13:31;;;;;;;145.40;68.00;;;;;;;-3.97;75.79;99773.67;2096400;84;29773;-64
2022/12/16 01:16:33;;;;;;;153.55;68.02;;;;;;;-3.94;75.79;99769.73;2075739;85;27680;-65
2022/12/16 01:19:36;;;;;;;138.30;63.83;;;;;;;-3.90;75.81;99756.23;2096719;84;29255;-64
2022/12/16 01:22:38;;;;;;;150.32;70.28;;;;;;;-3.89;75.90;99742.28;2075928;85;31977;-64
2022/12/16 01:25:39;;;;;;;149.97;69.17;;;;;;;-3.90;75.75;99753.17;2096099;84;33720;-64
2022/12/16 01:28:42;;;;;;;146.93;65.45;;;;;;;-3.90;75.77;99749.25;2075669;84;29355;-63
2022/12/16 01:31:44;;;;;;;144.28;65.85;;;;;;;-3.87;75.77;99750.56;2096621;84;27828;-63
2022/12/16 01:34:51;;;;;;;141.03;66.80;;;;;;;-3.83;75.74;99750.11;2075557;85;28686;-64
2022/12/16 01:37:53;;;;;;;128.15;60.10;;;;;;;-3.80;75.75;99755.35;2096303;84;31655;-65
2022/12/16 01:40:55;;;;;;;128.07;57.48;;;;;;;-3.76;75.77;99757.52;2075706;85;34110;-64
2022/12/16 01:44:16;;;;;;;135.97;62.43;;;;;;;-3.72;75.78;99763.20;2096075;84;30599;-64
2022/12/16 01:47:27;;;;;;;125.87;58.58;;;;;;;-3.70;75.71;99750.99;2071012;85;28122;-64
2022/12/16 01:50:29;;;;;;;129.45;59.53;;;;;;;-3.67;75.70;99748.38;2053546;86;29090;-65
2022/12/16 01:53:32;;;;;;;128.95;60.48;;;;;;;-3.63;75.66;99747.94;2027327;87;32482;-64
2022/12/16 01:56:36;;;;;;;133.20;62.00;;;;;;;-3.61;75.59;99754.05;2053483;86;33046;-64
2022/12/16 01:59:40;;;;;;;102.75;46.53;;;;;;;-3.59;75.58;99755.78;2042756;87;29343;-64
2022/12/16 02:02:43;;;;;;;118.60;55.12;;;;;;;-3.57;75.65;99750.56;2061669;86;27600;-65
2022/12/16 02:05:46;;;;;;;127.47;60.03;;;;;;;-3.56;75.57;99740.52;2061266;86;28901;-65
2022/12/16 02:08:52;;;;;;;121.33;58.20;;;;;;;-3.56;75.59;99741.37;2061536;85;31412;-65
2022/12/16 02:12:34;;;;;;;120.75;55.50;;;;;;;-3.54;75.51;99738.75;2061444;85;33061;-65
2022/12/16 02:15:44;;;;;;;127.80;57.58;;;;;;;-3.52;75.56;99741.81;2060534;86;30569;-64
2022/12/16 02:19:11;;;;;;;126.75;57.17;;;;;;;-3.50;75.49;99739.19;2061523;85;28107;-64
2022/12/16 02:22:52;;;;;;;128.15;55.88;;;;;;;-3.49;75.42;99724.37;2060880;86;28576;-63
2022/12/16 02:26:01;;;;;;;126.05;57.15;;;;;;;-3.48;75.50;99712.56;2061757;86;30806;-63
2022/12/16 02:29:33;;;;;;;117.70;53.20;;;;;;;-3.48;75.49;99710.40;2061764;86;33119;-64
2022/12/16 02:33:06;;;;;;;125.65;58.45;;;;;;;-3.47;75.52;99710.84;2061479;86;29133;-63
2022/12/16 02:36:31;;;;;;;118.77;54.73;;;;;;;-3.49;75.54;99704.73;2061607;86;27640;-63
2022/12/16 02:39:39;;;;;;;120.30;54.90;;;;;;;-3.46;75.55;99699.45;2061635;85;28574;-63
2022/12/16 02:42:49;;;;;;;121.13;57.38;;;;;;;-3.46;75.59;99692.49;2041961;86;31837;-63
2022/12/16 02:45:51;;;;;;;119.33;53.42;;;;;;;-3.44;75.54;99695.09;2061146;86;33635;-64
2022/12/16 02:48:55;;;;;;;113.65;52.35;;;;;;;-3.43;75.49;99695.11;2071762;85;29387;-63
2022/12/16 02:51:58;;;;;;;114.03;52.40;;;;;;;-3.40;75.52;99697.73;2075766;85;27745;-63
2022/12/16 02:55:06;;;;;;;96.82;46.25;;;;;;;-3.37;75.58;99692.91;2075666;85;28709;-64
2022/12/16 02:58:18;;;;;;;115.40;52.98;;;;;;;-3.33;75.53;99694.65;2075768;85;31847;-64
2022/12/16 03:01:33;;;;;;;109.42;52.75;;;;;;;-3.33;75.46;99689.41;2075806;85;33816;-63
2022/12/16 03:04:42;;;;;;;104.72;49.48;;;;;;;-3.29;75.50;99693.74;2075333;85;29410;-64
2022/12/16 03:07:45;;;;;;;112.40;49.83;;;;;;;-3.25;75.39;99695.94;2096612;84;27647;-64
2022/12/16 03:10:57;;;;;;;112.20;50.43;;;;;;;-3.23;75.38;99692.88;2075489;85;29989;-63
2022/12/16 03:13:59;;;;;;;93.30;43.58;;;;;;;-3.19;75.32;99705.06;2096425;84;30452;-65
2022/12/16 03:17:02;;;;;;;105.90;49.65;;;;;;;-3.15;75.34;99693.70;2075671;85;33979;-63
2022/12/16 03:20:18;;;;;;;110.35;51.85;;;;;;;-3.14;75.26;99690.21;2096742;84;29673;-63
2022/12/16 03:23:27;;;;;;;110.10;50.25;;;;;;;-3.11;75.15;99677.53;2103018;84;27631;-63
2022/12/16 03:26:33;;;;;;;107.03;51.73;;;;;;;-3.11;74.99;99678.42;2102893;84;28657;-63
2022/12/16 03:29:43;;;;;;;95.38;46.68;;;;;;;-3.11;75.05;99669.67;2102664;84;31957;-63
2022/12/16 03:33:04;;;;;;;100.40;45.38;;;;;;;-3.09;74.96;99656.13;2102985;84;33410;-64
2022/12/16 03:36:16;;;;;;;104.27;48.02;;;;;;;-3.07;75.01;99650.45;2102865;84;30141;-63
2022/12/16 03:39:19;;;;;;;100.05;49.15;;;;;;;-3.05;75.03;99650.00;2102741;84;27741;-64
2022/12/16 03:42:21;;;;;;;103.60;49.10;;;;;;;-3.06;75.00;99643.87;2102791;84;28695;-63
2022/12/16 03:45:28;;;;;;;103.78;48.50;;;;;;;-3.06;75.00;99653.05;2102901;84;31486;-64
2022/12/16 03:48:29;;;;;;;107.70;50.23;;;;;;;-3.05;74.91;99656.09;2092856;84;32990;-64
2022/12/16 03:51:31;;;;;;;101.35;47.58;;;;;;;-3.04;74.96;99650.44;2083357;85;30155;-64
2022/12/16 03:54:33;;;;;;;105.50;49.77;;;;;;;-3.02;74.90;99650.42;2083380;85;27686;-63
2022/12/16 03:57:37;;;;;;;102.15;48.17;;;;;;;-3.02;74.92;99660.48;2083337;85;29114;-63
2022/12/16 04:00:39;;;;;;;95.17;47.98;;;;;;;-3.03;74.89;99661.35;2083202;85;31084;-63
2022/12/16 04:03:41;;;;;;;83.95;40.78;;;;;;;-3.03;74.88;99663.97;2083078;85;33245;-64
2022/12/16 04:06:42;;;;;;;92.08;44.40;;;;;;;-3.06;74.86;99656.97;2083323;85;30476;-63
2022/12/16 04:09:45;;;;;;;103.38;50.05;;;;;;;-3.05;74.83;99661.34;2083229;85;28450;-63
2022/12/16 04:26:14;;;;;;;102.80;49.90;;;;;;;-3.07;74.82;99678.84;2083155;85;27651;-63
2022/12/16 04:29:16;;;;;;;95.28;46.48;;;;;;;-3.06;74.92;99682.32;2083031;85;28919;-63
2022/12/16 04:32:17;;;;;;;97.78;46.85;;;;;;;-3.02;74.87;99681.86;2083490;85;31396;-63
